Time;durP1;ratioP1;P1;durP2;ratioP2;P2;SDS_P1;SDS_P2;PMS_P1;PMS_P2;Temp;Humidity;BMP_temperature;BMP_pressure;BME280_temperature;BME280_humidity;BME280_pressure;Samples;Min_cycle;Max_cycle;Signal;HPM_P1;HPM_P2
2023/05/05 00:01:52;;;;;;;3.63;3.30;;;13.00;1.00;14.00;94247.00;;;;7398727;19;20196;-81
2023/05/05 00:04:27;;;;;;;3.40;3.10;;;13.10;1.00;13.90;94253.00;;;;7400348;19;20136;-81
2023/05/05 00:06:56;;;;;;;6.55;3.78;;;13.10;1.00;13.50;94246.00;;;;7399985;19;20124;-81
2023/05/05 00:09:36;;;;;;;6.47;3.63;;;12.90;1.00;13.30;94262.00;;;;7397485;19;20668;-82
2023/05/05 00:12:03;;;;;;;3.80;3.30;;;12.80;1.00;13.40;94264.00;;;;7398052;19;20572;-81
2023/05/05 00:14:37;;;;;;;4.75;3.33;;;12.70;1.00;13.80;94245.00;;;;7400251;19;20183;-81
2023/05/05 00:17:14;;;;;;;3.47;3.17;;;12.80;1.00;13.60;94258.00;;;;7400243;19;20140;-81
2023/05/05 00:19:48;;;;;;;3.60;3.28;;;12.80;1.00;13.60;94255.00;;;;7400323;19;20141;-81
2023/05/05 00:22:21;;;;;;;4.95;3.42;;;12.80;1.00;13.50;94263.00;;;;7398914;19;20157;-82
2023/05/05 00:24:55;;;;;;;8.90;4.07;;;12.80;1.00;13.60;94235.00;;;;7398770;19;20475;-80
2023/05/05 00:27:29;;;;;;;4.63;3.35;;;12.80;1.00;13.50;94237.00;;;;7395805;19;20584;-80
2023/05/05 00:30:07;;;;;;;7.43;3.20;;;12.80;1.00;13.40;94260.00;;;;7388707;19;20143;-81
2023/05/05 00:32:40;;;;;;;7.95;3.60;;;12.70;1.00;13.40;94258.00;;;;7398064;19;20160;-81
2023/05/05 00:35:08;;;;;;;5.15;3.42;;;12.70;1.00;13.40;94261.00;;;;7397664;19;20141;-80
2023/05/05 00:37:42;;;;;;;4.10;3.42;;;12.70;1.00;13.60;94254.00;;;;7399547;19;20136;-81
2023/05/05 00:40:09;;;;;;;4.00;3.45;;;12.80;1.00;13.70;94260.00;;;;7398958;19;20125;-80
2023/05/05 00:42:47;;;;;;;5.38;3.55;;;12.80;1.00;13.60;94268.00;;;;7399101;19;20481;-81
2023/05/05 00:45:16;;;;;;;3.40;3.10;;;12.80;1.00;13.60;94258.00;;;;7398385;19;20539;-80
2023/05/05 00:48:00;;;;;;;6.40;3.20;;;12.80;1.00;13.50;94260.00;;;;7398863;19;20145;-80
2023/05/05 00:50:34;;;;;;;6.53;3.50;;;12.80;1.00;13.40;94253.00;;;;7399005;19;20589;-81
2023/05/05 00:53:07;;;;;;;3.17;2.88;;;12.70;8.30;13.20;94250.00;;;;7398223;19;20145;-80
2023/05/05 00:55:35;;;;;;;4.45;3.30;;;12.60;14.30;13.20;94242.00;;;;7398042;19;20136;-80
2023/05/05 00:58:08;;;;;;;5.78;3.33;;;12.50;30.90;13.00;94248.00;;;;7399535;19;20161;-80
2023/05/05 01:00:43;;;;;;;7.13;3.13;;;12.40;52.60;12.90;94223.00;;;;7399748;19;20133;-73
2023/05/05 01:03:22;;;;;;;6.38;3.35;;;12.30;99.90;12.60;94247.00;;;;7391226;19;20200;-74
2023/05/05 01:06:22;;;;;;;7.97;3.03;;;12.20;99.90;12.60;94243.00;;;;7396352;19;20642;-75
2023/05/05 01:09:31;;;;;;;6.20;3.45;;;12.10;99.90;12.70;94234.00;;;;7397020;19;20619;-75
2023/05/05 01:12:13;;;;;;;6.07;3.33;;;12.00;99.90;12.50;94236.00;;;;7396229;19;20156;-76
2023/05/05 01:14:50;;;;;;;5.95;3.30;;;12.00;99.90;12.80;94229.00;;;;7397985;19;20132;-76
2023/05/05 01:17:42;;;;;;;4.38;3.42;;;12.00;99.90;13.20;94222.00;;;;7396017;19;20153;-76
2023/05/05 01:20:30;;;;;;;5.47;3.03;;;12.10;99.90;13.10;94227.00;;;;7396154;19;20160;-77
2023/05/05 01:23:08;;;;;;;7.95;3.10;;;12.20;99.90;13.00;94222.00;;;;7397567;19;20144;-76
2023/05/05 01:26:29;;;;;;;3.42;3.13;;;12.20;99.90;12.90;94214.00;;;;7396659;19;20159;-77
2023/05/05 01:29:34;;;;;;;4.90;3.20;;;12.30;99.90;13.10;94245.00;;;;7397392;19;20671;-76
2023/05/05 01:32:15;;;;;;;4.88;2.95;;;12.30;99.90;13.30;94204.00;;;;7391268;19;20129;-76
2023/05/05 01:34:58;;;;;;;3.72;3.05;;;12.40;99.90;13.50;94223.00;;;;7395732;19;20156;-75
2023/05/05 01:37:48;;;;;;;5.60;3.10;;;12.50;99.90;13.70;94205.00;;;;7397885;19;20204;-76
2023/05/05 01:40:26;;;;;;;5.55;2.92;;;12.70;99.90;13.90;94242.00;;;;7396025;19;20137;-76
2023/05/05 01:43:03;;;;;;;5.10;2.65;;;12.80;79.60;14.10;94213.00;;;;7397440;19;20602;-75
2023/05/05 01:45:40;;;;;;;4.10;2.92;;;13.00;45.60;14.00;94234.00;;;;7394854;19;20140;-76
2023/05/05 01:48:11;;;;;;;4.05;3.15;;;13.10;36.60;13.90;94250.00;;;;7396307;19;20153;-75
2023/05/05 01:50:47;;;;;;;5.78;3.13;;;13.10;37.00;13.90;94256.00;;;;7396806;19;20438;-76
2023/05/05 01:53:23;;;;;;;3.50;2.78;;;13.20;34.60;13.80;94196.00;;;;7397015;19;20120;-76
2023/05/05 01:55:57;;;;;;;3.60;2.50;;;13.10;50.80;14.00;94221.00;;;;7396657;19;20161;-76
2023/05/05 01:58:32;;;;;;;4.13;3.10;;;13.10;42.10;14.10;94255.00;;;;7395491;19;20212;-76
2023/05/05 02:01:07;;;;;;;4.35;2.78;;;13.20;43.60;14.20;94248.00;;;;7394735;19;20627;-76
2023/05/05 02:03:42;;;;;;;3.13;2.50;;;13.30;32.40;14.20;94201.00;;;;7395250;19;20737;-76
2023/05/05 02:06:20;;;;;;;7.00;2.85;;;13.40;19.20;14.30;94258.00;;;;7395322;19;20549;-74
2023/05/05 02:08:57;;;;;;;4.28;3.20;;;13.40;24.10;14.20;94261.00;;;;7395287;19;20154;-75
2023/05/05 02:11:31;;;;;;;4.47;2.90;;;13.40;31.30;14.10;94241.00;;;;7397484;19;20137;-75
2023/05/05 02:14:07;;;;;;;3.22;2.70;;;13.40;37.60;13.90;94238.00;;;;7396862;19;20133;-77
2023/05/05 02:16:42;;;;;;;3.55;3.05;;;13.30;50.10;14.00;94267.00;;;;7395136;19;20504;-74
2023/05/05 02:19:12;;;;;;;3.65;3.05;;;13.30;69.20;13.90;94268.00;;;;7394249;19;20137;-76
2023/05/05 02:21:45;;;;;;;4.75;3.20;;;13.20;91.90;14.00;94259.00;;;;7396882;19;20137;-76
2023/05/05 02:24:13;;;;;;;5.95;3.10;;;13.20;99.90;13.80;94257.00;;;;7394787;19;20157;-77
2023/05/05 02:26:50;;;;;;;5.00;3.30;;;13.20;99.90;13.90;94270.00;;;;7393810;19;20132;-77
2023/05/05 02:29:33;;;;;;;3.47;3.05;;;13.20;99.90;13.80;94232.00;;;;7394980;19;20145;-76
2023/05/05 02:32:31;;;;;;;7.00;3.20;;;13.10;99.90;13.70;94252.00;;;;7399605;19;20148;-77
2023/05/05 02:35:08;;;;;;;4.20;3.45;;;13.10;99.90;13.80;94206.00;;;;7401289;19;20139;-76
2023/05/05 02:37:49;;;;;;;5.57;3.00;;;13.00;99.90;13.80;94279.00;;;;7401684;19;20152;-77
2023/05/05 02:40:27;;;;;;;3.58;3.28;;;13.00;99.90;13.80;94295.00;;;;7403276;19;20173;-76
2023/05/05 02:43:08;;;;;;;5.05;3.40;;;13.00;99.90;13.70;94269.00;;;;7397594;19;20121;-77
2023/05/05 02:45:43;;;;;;;4.53;3.50;;;12.90;99.90;13.60;94230.00;;;;7400430;19;20145;-77
2023/05/05 02:48:16;;;;;;;11.80;3.38;;;12.80;99.90;13.40;94244.00;;;;7403064;19;20603;-76
2023/05/05 02:50:50;;;;;;;5.65;3.30;;;12.70;99.90;13.10;94276.00;;;;7402881;19;20587;-77
2023/05/05 02:53:26;;;;;;;3.97;3.22;;;12.50;99.90;13.00;94286.00;;;;7402706;19;20128;-77
2023/05/05 02:56:18;;;;;;;6.78;3.55;;;12.40;99.90;12.90;94290.00;;;;7400812;19;20149;-77
2023/05/05 02:59:07;;;;;;;4.00;3.60;;;12.20;1.00;12.80;94252.00;;;;7401519;19;20627;-77
2023/05/05 03:02:16;;;;;;;6.32;3.22;;;12.10;1.00;12.70;94275.00;;;;7399930;19;20149;-76
2023/05/05 03:05:04;;;;;;;4.30;3.85;;;12.10;1.00;12.60;94253.00;;;;7401984;19;20133;-76
2023/05/05 03:07:52;;;;;;;6.20;3.78;;;12.00;1.00;12.80;94258.00;;;;7397763;19;20149;-76
2023/05/05 03:10:35;;;;;;;6.47;3.38;;;12.00;1.00;12.80;94250.00;;;;7402183;19;20200;-76
2023/05/05 03:13:10;;;;;;;8.02;3.97;;;12.10;1.00;12.80;94247.00;;;;7401448;19;20596;-76
2023/05/05 03:15:47;;;;;;;5.50;3.38;;;12.10;1.00;12.60;94272.00;;;;7400043;19;20174;-76
2023/05/05 03:18:23;;;;;;;4.30;3.10;;;12.00;1.00;12.80;94252.00;;;;7401388;19;20121;-76
2023/05/05 03:20:51;;;;;;;3.97;3.40;;;12.00;1.00;12.70;94226.00;;;;7400554;19;20485;-76
2023/05/05 03:23:25;;;;;;;7.40;3.53;;;12.00;1.00;13.10;94225.00;;;;7401478;19;20132;-76
2023/05/05 03:25:52;;;;;;;6.45;3.25;;;12.10;1.00;12.90;94245.00;;;;7398933;19;20145;-77
2023/05/05 03:28:26;;;;;;;4.63;3.47;;;12.10;1.00;12.70;94270.00;;;;7400178;19;20163;-77
2023/05/05 03:30:53;;;;;;;4.57;3.30;;;12.10;1.00;12.70;94268.00;;;;7400201;19;20149;-76
2023/05/05 03:33:26;;;;;;;4.55;3.38;;;12.10;1.00;12.50;94276.00;;;;7401478;19;20140;-77
2023/05/05 03:36:00;;;;;;;5.35;3.33;;;12.00;1.00;12.50;94273.00;;;;7399883;19;20149;-77
2023/05/05 03:38:34;;;;;;;6.95;3.13;;;11.90;1.00;12.40;94259.00;;;;7399614;19;20631;-77
2023/05/05 03:41:08;;;;;;;5.60;3.13;;;11.80;1.00;12.20;94224.00;;;;7396314;19;20137;-76
2023/05/05 03:43:36;;;;;;;4.82;3.28;;;11.70;1.00;12.30;94232.00;;;;7394652;19;20488;-76
2023/05/05 03:46:09;;;;;;;3.67;2.95;;;11.70;1.00;12.20;94269.00;;;;7398851;19;20557;-77
2023/05/05 03:48:45;;;;;;;6.07;3.30;;;11.60;1.00;12.50;94238.00;;;;7399499;19;20615;-77
2023/05/05 03:51:18;;;;;;;4.10;3.00;;;11.70;1.00;12.80;94239.00;;;;7399249;19;20647;-76
2023/05/05 03:53:52;;;;;;;3.20;2.90;;;11.80;1.00;12.90;94252.00;;;;7400690;19;20155;-76
2023/05/05 03:56:26;;;;;;;5.63;2.67;;;11.90;1.00;13.10;94242.00;;;;7398992;19;20672;-76
2023/05/05 03:58:53;;;;;;;5.30;2.83;;;12.00;1.00;12.90;94258.00;;;;7400958;19;20132;-75
2023/05/05 04:01:28;;;;;;;5.70;2.90;;;12.10;1.00;13.00;94251.00;;;;7398077;19;20148;-75
2023/05/05 04:04:03;;;;;;;4.55;2.63;;;12.10;1.00;13.00;94219.00;;;;7398558;19;20148;-75
2023/05/05 04:06:36;;;;;;;3.15;2.80;;;12.10;1.00;12.90;94247.00;;;;7395970;19;20137;-76
2023/05/05 04:09:04;;;;;;;3.92;2.95;;;12.10;1.00;13.00;94252.00;;;;7396671;19;20184;-77
2023/05/05 04:11:31;;;;;;;4.00;2.60;;;12.10;1.00;12.80;94238.00;;;;7398166;19;20180;-77
2023/05/05 04:14:04;;;;;;;4.93;3.28;;;12.00;1.00;12.90;94263.00;;;;7398779;19;20159;-77
2023/05/05 04:16:38;;;;;;;8.18;3.30;;;12.00;1.00;12.90;94245.00;;;;7398537;19;20488;-77
2023/05/05 04:19:12;;;;;;;6.15;3.20;;;12.00;1.00;13.00;94205.00;;;;7398612;19;20145;-77
2023/05/05 04:21:39;;;;;;;5.88;3.08;;;12.00;1.00;13.00;94230.00;;;;7399985;19;20148;-77
2023/05/05 04:24:13;;;;;;;6.32;2.80;;;12.10;1.00;13.10;94270.00;;;;7399645;19;20591;-77
2023/05/05 04:26:41;;;;;;;4.47;3.00;;;12.20;1.00;13.10;94248.00;;;;7398595;19;20145;-77
2023/05/05 04:29:15;;;;;;;4.55;2.80;;;12.20;1.00;13.30;94279.00;;;;7394811;19;20153;-77
2023/05/05 04:31:42;;;;;;;3.58;2.90;;;12.30;1.00;13.20;94258.00;;;;7399160;19;20144;-76
2023/05/05 04:34:10;;;;;;;4.13;3.08;;;12.40;1.00;13.30;94260.00;;;;7400022;19;20596;-78
2023/05/05 04:36:43;;;;;;;3.92;2.92;;;12.40;1.00;13.20;94270.00;;;;7397751;19;20480;-75
2023/05/05 04:39:10;;;;;;;8.93;3.10;;;12.40;1.00;13.10;94272.00;;;;7398042;19;20483;-75
2023/05/05 04:41:44;;;;;;;6.15;3.17;;;12.40;1.00;13.30;94251.00;;;;7398178;19;20200;-75
2023/05/05 04:44:11;;;;;;;4.63;3.00;;;12.40;1.00;13.40;94253.00;;;;7399198;19;20144;-76
2023/05/05 04:46:45;;;;;;;5.15;3.20;;;12.50;1.00;13.50;94267.00;;;;7397833;19;20124;-73
2023/05/05 04:49:12;;;;;;;3.92;2.80;;;12.60;1.00;13.50;94280.00;;;;7397404;19;20185;-75
2023/05/05 04:51:46;;;;;;;3.72;2.90;;;12.70;1.00;13.70;94240.00;;;;7397520;19;20155;-74
2023/05/05 04:54:21;;;;;;;4.00;3.08;;;12.80;1.00;13.80;94248.00;;;;7396936;19;20148;-75
2023/05/05 04:56:55;;;;;;;3.70;2.60;;;12.90;1.00;13.70;94237.00;;;;7396979;19;20133;-74
2023/05/05 04:59:22;;;;;;;4.20;2.60;;;12.90;1.00;14.00;94285.00;;;;7397320;19;20143;-74
2023/05/05 05:01:56;;;;;;;5.20;2.58;;;13.00;1.00;13.90;94266.00;;;;7397507;19;20137;-75
2023/05/05 05:04:30;;;;;;;3.70;2.92;;;13.00;1.00;14.00;94279.00;;;;7394579;19;20172;-75
2023/05/05 05:07:04;;;;;;;4.05;2.90;;;13.10;1.00;14.10;94258.00;;;;7397035;19;20158;-74
2023/05/05 05:09:37;;;;;;;3.28;2.50;;;13.30;1.00;14.30;94268.00;;;;7398197;19;20143;-74
2023/05/05 05:12:06;;;;;;;4.55;2.97;;;13.30;1.00;14.30;94290.00;;;;7396381;19;20694;-74
2023/05/05 05:14:40;;;;;;;3.22;2.50;;;13.50;99.90;14.40;94274.00;;;;7396408;19;20144;-75
2023/05/05 05:17:15;;;;;;;5.13;2.63;;;13.70;99.90;14.70;94292.00;;;;7398004;19;20139;-73
2023/05/05 05:19:42;;;;;;;4.60;2.35;;;13.80;99.90;14.80;94284.00;;;;7398241;19;20137;-74
2023/05/05 05:22:16;;;;;;;4.07;2.63;;;14.10;99.90;15.00;94267.00;;;;7395541;19;20475;-74
2023/05/05 05:24:43;;;;;;;3.85;2.70;;;14.20;99.90;15.00;94282.00;;;;7396923;19;20201;-75
2023/05/05 05:27:32;;;;;;;3.67;2.30;;;14.30;99.90;15.00;94290.00;;;;7394312;19;20166;-75
2023/05/05 05:30:13;;;;;;;3.92;2.40;;;14.30;99.90;15.30;94289.00;;;;7397645;19;20151;-73
2023/05/05 05:32:40;;;;;;;6.47;2.45;;;14.40;99.90;15.50;94269.00;;;;7391908;19;20167;-73
2023/05/05 05:35:15;;;;;;;3.63;2.58;;;14.40;99.90;15.40;94299.00;;;;7396363;19;20552;-73
2023/05/05 05:37:50;;;;;;;5.88;2.50;;;14.50;99.90;15.70;94292.00;;;;7397300;19;20137;-73
2023/05/05 05:40:18;;;;;;;3.50;2.72;;;14.60;99.90;15.80;94291.00;;;;7395695;19;20139;-72
2023/05/05 05:42:51;;;;;;;4.55;2.25;;;14.70;99.90;15.80;94297.00;;;;7397401;19;20895;-73
2023/05/05 05:45:19;;;;;;;4.47;2.42;;;14.80;99.90;16.00;94298.00;;;;7395618;19;20167;-74
2023/05/05 05:47:53;;;;;;;4.30;2.22;;;14.90;99.90;16.30;94290.00;;;;7394136;19;20148;-74
2023/05/05 05:50:28;;;;;;;2.20;2.00;;;15.10;99.90;16.50;94301.00;;;;7397026;19;20140;-74
2023/05/05 05:53:01;;;;;;;4.90;2.10;;;15.30;68.10;16.50;94304.00;;;;7396853;19;20121;-74
2023/05/05 05:55:36;;;;;;;4.22;2.22;;;15.30;67.10;16.00;94315.00;;;;7397112;19;20579;-74
2023/05/05 05:58:03;;;;;;;4.60;1.85;;;15.30;43.10;16.00;94279.00;;;;7395937;19;20160;-74
2023/05/05 06:00:36;;;;;;;5.05;2.55;;;15.20;75.10;16.00;94292.00;;;;7394765;19;20204;-75
2023/05/05 06:03:10;;;;;;;2.60;2.30;;;15.10;78.70;15.60;94292.00;;;;7393402;19;20566;-74
2023/05/05 06:05:45;;;;;;;3.30;2.50;;;15.10;87.50;15.90;94331.00;;;;7397088;19;20133;-74
2023/05/05 06:08:12;;;;;;;2.42;2.17;;;15.00;99.90;15.60;94317.00;;;;7400631;19;20141;-74
2023/05/05 06:10:50;;;;;;;2.83;2.30;;;15.00;99.90;15.50;94311.00;;;;7403499;19;20591;-74
2023/05/05 06:13:18;;;;;;;6.20;1.98;;;14.90;99.90;15.70;94318.00;;;;7404029;19;20330;-73
2023/05/05 06:15:51;;;;;;;2.40;2.20;;;14.80;99.90;15.70;94333.00;;;;7403889;19;20125;-74
2023/05/05 06:18:19;;;;;;;2.85;1.90;;;14.90;99.90;15.70;94321.00;;;;7402059;19;20161;-74
2023/05/05 06:20:53;;;;;;;4.85;2.20;;;14.80;99.90;15.60;94331.00;;;;7404660;19;20157;-74
2023/05/05 06:23:26;;;;;;;3.30;2.20;;;14.70;99.90;15.40;94302.00;;;;7404098;19;20181;-74
2023/05/05 06:25:54;;;;;;;5.15;2.00;;;14.70;99.90;15.40;94322.00;;;;7401886;19;20592;-74
2023/05/05 06:28:27;;;;;;;3.53;2.08;;;14.70;99.90;15.40;94334.00;;;;7397345;19;20133;-74
2023/05/05 06:31:02;;;;;;;4.05;1.90;;;14.60;99.90;15.40;94287.00;;;;7402164;19;20600;-74
2023/05/05 06:33:29;;;;;;;5.15;1.95;;;14.60;99.90;15.30;94302.00;;;;7404383;19;20580;-73
2023/05/05 06:35:56;;;;;;;1.85;1.75;;;14.60;99.90;15.50;94321.00;;;;7401426;19;20133;-74
2023/05/05 06:38:30;;;;;;;5.70;2.03;;;14.50;99.90;15.40;94298.00;;;;7403212;19;20451;-75
2023/05/05 06:40:57;;;;;;;4.43;2.10;;;14.60;99.90;15.50;94328.00;;;;7402945;19;20153;-75
2023/05/05 06:43:31;;;;;;;4.80;3.47;;;14.60;99.90;15.50;94325.00;;;;7402275;19;20137;-74
2023/05/05 06:46:06;;;;;;;3.63;2.80;;;14.60;99.90;15.40;94326.00;;;;7401993;19;20139;-74
2023/05/05 06:48:33;;;;;;;3.80;2.40;;;14.60;99.90;15.40;94336.00;;;;7399108;19;20508;-75
2023/05/05 06:51:00;;;;;;;3.55;2.35;;;14.70;99.90;15.50;94332.00;;;;7401591;19;20469;-75
2023/05/05 06:53:34;;;;;;;4.32;2.10;;;14.70;99.90;15.80;94332.00;;;;7402234;19;20614;-74
2023/05/05 06:56:10;;;;;;;4.60;2.40;;;14.70;99.90;15.60;94301.00;;;;7400551;19;20148;-75
2023/05/05 06:58:37;;;;;;;3.63;2.08;;;14.80;99.90;15.70;94295.00;;;;7403298;19;20474;-75
2023/05/05 07:01:04;;;;;;;2.97;2.10;;;14.90;99.90;15.70;94322.00;;;;7402326;19;20143;-75
2023/05/05 07:03:45;;;;;;;3.50;2.20;;;15.00;99.90;15.70;94324.00;;;;7398690;19;20635;-74
2023/05/05 07:06:19;;;;;;;3.30;1.92;;;15.10;99.90;16.00;94294.00;;;;7402161;19;20149;-74
2023/05/05 07:08:53;;;;;;;7.03;2.03;;;15.20;99.90;16.10;94317.00;;;;7398298;19;20155;-75
2023/05/05 07:11:28;;;;;;;2.55;2.22;;;15.10;99.90;16.00;94297.00;;;;7400687;19;20129;-75
2023/05/05 07:14:02;;;;;;;2.08;1.88;;;15.30;99.90;16.20;94322.00;;;;7398887;19;20121;-75
2023/05/05 07:16:36;;;;;;;4.47;2.10;;;15.30;99.90;16.10;94341.00;;;;7400521;19;20196;-75
2023/05/05 07:19:09;;;;;;;6.93;2.00;;;15.50;99.90;16.40;94332.00;;;;7401111;19;20162;-74
2023/05/05 07:21:43;;;;;;;3.08;2.10;;;15.60;70.30;16.50;94347.00;;;;7401091;19;20606;-74
2023/05/05 07:24:17;;;;;;;4.57;1.98;;;15.80;49.00;16.30;94326.00;;;;7401350;19;20491;-75
2023/05/05 07:26:45;;;;;;;4.63;2.47;;;15.90;29.60;16.60;94345.00;;;;7400240;19;20463;-75
2023/05/05 07:29:18;;;;;;;2.75;1.98;;;15.80;10.60;16.50;94335.00;;;;7400190;19;20642;-75
2023/05/05 07:31:46;;;;;;;2.28;1.88;;;15.80;30.10;16.40;94352.00;;;;7395769;19;20524;-74
2023/05/05 07:34:19;;;;;;;4.70;2.10;;;15.80;43.40;16.30;94347.00;;;;7400208;19;20137;-72
2023/05/05 07:36:55;;;;;;;2.10;1.90;;;15.80;51.30;16.20;94353.00;;;;7399240;19;20148;-74
2023/05/05 07:39:29;;;;;;;2.70;1.95;;;15.70;29.90;16.10;94342.00;;;;7400409;19;20693;-76
2023/05/05 07:42:03;;;;;;;5.07;2.33;;;15.80;15.90;16.30;94349.00;;;;7400229;19;20153;-74
2023/05/05 07:44:36;;;;;;;3.42;2.17;;;15.80;40.50;16.50;94339.00;;;;7400629;19;20145;-74
2023/05/05 07:47:04;;;;;;;2.03;1.65;;;15.70;45.00;16.70;94353.00;;;;7400064;19;20600;-74
2023/05/05 07:49:39;;;;;;;6.05;1.80;;;15.70;20.00;16.70;94283.00;;;;7395334;19;20132;-74
2023/05/05 07:52:08;;;;;;;3.00;1.88;;;15.80;27.80;16.70;94355.00;;;;7399444;19;20148;-73
2023/05/05 07:54:42;;;;;;;1.92;1.75;;;16.00;24.90;17.10;94337.00;;;;7399958;19;20143;-75
2023/05/05 07:57:10;;;;;;;2.85;1.58;;;16.20;1.00;17.00;94322.00;;;;7399579;19;20150;-74
2023/05/05 07:59:44;;;;;;;2.95;2.10;;;16.40;1.00;17.40;94336.00;;;;7385042;19;20207;-74
2023/05/05 08:02:12;;;;;;;2.00;1.80;;;16.50;1.00;17.70;94305.00;;;;7375039;19;20192;-74
2023/05/05 08:04:53;;;;;;;5.72;1.70;;;16.70;1.00;17.90;94329.00;;;;7382598;19;20184;-75
2023/05/05 08:07:28;;;;;;;2.30;1.70;;;16.90;1.00;18.20;94315.00;;;;7383736;19;20196;-75
2023/05/05 08:10:02;;;;;;;2.80;2.22;;;17.30;1.00;18.20;94327.00;;;;7382944;19;20144;-75
2023/05/05 08:12:29;;;;;;;2.60;1.70;;;17.50;1.00;18.20;94318.00;;;;7385572;19;20576;-73
2023/05/05 08:15:04;;;;;;;2.25;1.85;;;17.50;1.00;17.80;94316.00;;;;7383440;19;22006;-72
2023/05/05 08:17:50;;;;;;;3.50;1.70;;;17.40;1.00;17.90;94310.00;;;;7384953;19;20145;-73
2023/05/05 08:20:20;;;;;;;3.55;1.70;;;17.30;1.00;17.70;94347.00;;;;7384398;19;20153;-73
2023/05/05 08:22:54;;;;;;;2.58;1.65;;;17.20;99.90;17.80;94349.00;;;;7384825;19;20139;-73
2023/05/05 08:25:43;;;;;;;4.20;1.70;;;17.30;99.90;18.10;94349.00;;;;7383051;19;20247;-74
2023/05/05 08:28:24;;;;;;;2.30;1.73;;;17.50;1.00;18.20;94350.00;;;;7377526;19;20155;-74
2023/05/05 08:30:58;;;;;;;1.90;1.40;;;17.50;99.90;18.30;94337.00;;;;7382779;19;20580;-75
2023/05/05 08:33:32;;;;;;;1.48;1.30;;;17.60;1.00;18.50;94346.00;;;;7383350;19;20484;-76
2023/05/05 08:36:00;;;;;;;3.10;1.45;;;17.90;1.00;18.70;94347.00;;;;7382447;19;20228;-75
2023/05/05 08:38:33;;;;;;;2.65;1.50;;;17.60;1.00;18.60;94336.00;;;;7384661;19;20132;-74
2023/05/05 08:41:11;;;;;;;2.03;1.42;;;17.70;1.00;18.70;94314.00;;;;7382648;19;20144;-74
2023/05/05 08:43:47;;;;;;;3.60;1.50;;;17.70;1.00;18.90;94341.00;;;;7382901;19;20522;-73
2023/05/05 08:46:15;;;;;;;2.10;1.40;;;17.80;1.00;19.00;94331.00;;;;7382609;19;20231;-74
2023/05/05 08:48:53;;;;;;;1.98;1.50;;;18.00;1.00;18.90;94333.00;;;;7382871;19;20563;-75
2023/05/05 08:51:37;;;;;;;1.92;1.40;;;18.00;1.00;18.60;94327.00;;;;7383448;19;20175;-73
2023/05/05 08:54:19;;;;;;;1.83;1.50;;;18.10;1.00;18.50;94335.00;;;;7383290;19;20132;-75
2023/05/05 08:56:56;;;;;;;3.40;1.70;;;17.90;1.00;18.40;94337.00;;;;7383127;19;20211;-74
2023/05/05 08:59:28;;;;;;;1.80;1.60;;;18.00;1.00;18.70;94322.00;;;;7383699;19;20201;-74
2023/05/05 09:02:04;;;;;;;2.45;1.48;;;18.10;1.00;19.10;94299.00;;;;7380649;19;20550;-75
2023/05/05 09:04:45;;;;;;;4.72;1.60;;;18.40;1.00;19.20;94318.00;;;;7382280;19;20180;-74
2023/05/05 09:07:19;;;;;;;2.80;1.50;;;18.60;1.00;19.60;94333.00;;;;7382201;19;20151;-75
2023/05/05 09:09:48;;;;;;;1.90;1.50;;;18.70;1.00;19.60;94321.00;;;;7381989;19;20125;-74
2023/05/05 09:12:22;;;;;;;3.28;1.55;;;19.00;1.00;19.80;94329.00;;;;7381600;19;20128;-75
2023/05/05 09:14:56;;;;;;;3.72;1.70;;;19.10;1.00;19.70;94315.00;;;;7381780;19;20538;-75
2023/05/05 09:17:30;;;;;;;7.22;1.80;;;19.20;1.00;19.60;94332.00;;;;7383087;19;20193;-74
2023/05/05 09:20:06;;;;;;;3.78;1.75;;;19.20;1.00;19.20;94332.00;;;;7383249;19;20157;-74
2023/05/05 09:22:46;;;;;;;3.00;1.60;;;19.00;1.00;18.70;94350.00;;;;7383091;19;20132;-74
2023/05/05 09:25:16;;;;;;;2.22;1.60;;;18.60;1.00;18.40;94361.00;;;;7381284;19;20160;-74
2023/05/05 09:27:49;;;;;;;6.70;1.67;;;18.10;1.00;17.90;94360.00;;;;7381585;19;20137;-74
2023/05/05 09:30:25;;;;;;;2.17;1.60;;;17.80;1.00;17.70;94365.00;;;;7383154;19;20136;-73
2023/05/05 09:33:00;;;;;;;1.90;1.70;;;17.30;1.00;17.40;94364.00;;;;7377641;19;20163;-74
2023/05/05 09:35:46;;;;;;;1.70;1.60;;;17.10;1.00;17.00;94341.00;;;;7381628;19;20656;-74
2023/05/05 09:38:23;;;;;;;2.50;1.98;;;16.90;1.00;16.90;94352.00;;;;7382734;19;20152;-74
2023/05/05 09:40:57;;;;;;;3.03;1.80;;;16.70;1.00;16.90;94360.00;;;;7385913;19;20125;-75
2023/05/05 09:43:50;;;;;;;2.00;1.80;;;16.60;1.00;16.90;94355.00;;;;7387268;19;20155;-74
2023/05/05 09:46:17;;;;;;;4.72;1.85;;;16.60;1.00;17.00;94358.00;;;;7387470;19;20294;-75
2023/05/05 09:48:51;;;;;;;5.13;1.83;;;16.50;1.00;17.00;94357.00;;;;7387598;19;20615;-76
2023/05/05 09:51:28;;;;;;;2.22;1.75;;;16.50;1.00;16.90;94344.00;;;;7386934;19;20545;-75
2023/05/05 09:54:01;;;;;;;2.45;1.83;;;16.50;1.00;17.00;94326.00;;;;7387160;19;20180;-77
2023/05/05 09:56:39;;;;;;;3.70;1.60;;;16.40;23.00;17.30;94341.00;;;;7387041;19;20230;-73
2023/05/05 09:59:10;;;;;;;2.70;2.17;;;16.40;33.80;17.50;94345.00;;;;7389258;19;20597;-73
2023/05/05 10:01:43;;;;;;;2.80;1.80;;;16.60;83.70;17.70;94332.00;;;;7384669;19;20534;-74
2023/05/05 10:04:35;;;;;;;2.75;1.88;;;16.80;86.80;18.00;94345.00;;;;7388510;19;20160;-73
2023/05/05 10:07:23;;;;;;;2.22;1.65;;;17.00;32.30;17.90;94323.00;;;;7386455;19;20157;-74
2023/05/05 10:09:58;;;;;;;4.10;2.03;;;17.10;1.00;17.90;94338.00;;;;7387275;19;20155;-73
2023/05/05 10:12:36;;;;;;;3.55;2.05;;;17.00;1.00;17.80;94330.00;;;;7387671;19;20226;-72
2023/05/05 10:15:07;;;;;;;6.93;2.20;;;17.10;1.00;17.70;94321.00;;;;7386086;19;20163;-77
2023/05/05 10:17:47;;;;;;;3.67;2.50;;;17.10;1.00;17.30;94326.00;;;;7387307;19;20140;-74
2023/05/05 10:20:36;;;;;;;4.13;3.10;;;17.10;57.40;17.40;94335.00;;;;7386139;19;20203;-73
2023/05/05 10:23:19;;;;;;;4.85;2.92;;;17.00;99.90;17.40;94331.00;;;;7386600;19;20506;-74
2023/05/05 10:26:05;;;;;;;4.57;3.13;;;16.90;99.90;17.40;94334.00;;;;7384600;19;20124;-74
2023/05/05 10:29:00;;;;;;;6.88;6.07;;;17.00;99.90;17.80;94336.00;;;;7382639;19;20638;-73
2023/05/05 10:31:46;;;;;;;5.93;4.18;;;17.10;99.90;18.10;94329.00;;;;7385942;19;20133;-74
2023/05/05 10:34:28;;;;;;;5.43;3.90;;;17.30;99.90;18.70;94317.00;;;;7387848;19;20599;-74
2023/05/05 10:36:59;;;;;;;6.20;3.10;;;17.50;99.90;19.10;94289.00;;;;7386248;19;20148;-73
2023/05/05 10:39:36;;;;;;;3.08;2.72;;;18.00;36.00;20.10;94287.00;;;;7387840;19;20128;-74
2023/05/05 10:42:03;;;;;;;3.92;2.75;;;18.60;1.00;20.50;94296.00;;;;7386173;19;20880;-74
2023/05/05 10:44:37;;;;;;;2.95;2.60;;;19.30;1.00;21.00;94280.00;;;;7386286;19;20198;-73
2023/05/05 10:47:05;;;;;;;2.97;2.65;;;20.00;1.00;21.50;94287.00;;;;7387579;19;20540;-73
2023/05/05 10:50:16;;;;;;;5.65;3.47;;;20.60;1.00;22.20;94284.00;;;;7385465;19;20152;-74
2023/05/05 10:53:17;;;;;;;5.43;2.80;;;21.10;1.00;23.10;94245.00;;;;7384523;19;20592;-74
2023/05/05 10:56:25;;;;;;;3.15;2.65;;;21.80;1.00;24.30;94272.00;;;;7385974;19;20195;-74
2023/05/05 10:58:52;;;;;;;4.10;2.45;;;22.70;1.00;25.00;94263.00;;;;7386224;19;20149;-76
2023/05/05 11:01:35;;;;;;;3.28;2.40;;;23.00;1.00;24.30;94273.00;;;;7379750;19;20147;-73
2023/05/05 11:04:20;;;;;;;3.80;2.38;;;23.60;1.00;24.40;94264.00;;;;7379117;19;20160;-74
2023/05/05 11:07:26;;;;;;;2.25;2.00;;;23.80;1.00;25.90;94220.00;;;;7383443;19;20125;-74
2023/05/05 11:10:05;;;;;;;3.47;2.08;;;24.20;1.00;25.50;94247.00;;;;7381580;19;20136;-73
2023/05/05 11:12:58;;;;;;;3.22;2.10;;;24.70;1.00;25.40;94240.00;;;;7382898;19;20180;-74
2023/05/05 11:15:36;;;;;;;4.57;2.00;;;24.60;1.00;25.20;94236.00;;;;7384232;19;20129;-74
2023/05/05 11:18:43;;;;;;;2.63;1.50;;;25.00;1.00;25.50;94223.00;;;;7383779;19;20138;-74
2023/05/05 11:21:16;;;;;;;3.22;2.88;;;25.10;1.00;25.70;94225.00;;;;7384426;19;20196;-74
2023/05/05 11:23:50;;;;;;;3.88;1.80;;;24.70;99.90;24.60;94234.00;;;;7381596;19;20136;-75
2023/05/05 11:26:50;;;;;;;2.28;1.60;;;24.40;1.00;23.30;94248.00;;;;7381697;19;20169;-73
2023/05/05 11:29:24;;;;;;;4.82;1.90;;;23.70;1.00;23.30;94249.00;;;;7382581;19;20161;-74
2023/05/05 11:32:12;;;;;;;4.43;2.22;;;23.10;1.00;23.40;94259.00;;;;7381161;19;20133;-73
2023/05/05 11:34:49;;;;;;;4.43;2.00;;;22.90;1.00;23.40;94233.00;;;;7382656;19;20169;-73
2023/05/05 11:37:23;;;;;;;3.63;2.00;;;22.50;1.00;23.20;94246.00;;;;7380002;19;20132;-74